sensor_id;sensor_type;location;lat;lon;timestamp;P1;durP1;ratioP1;P2;durP2;ratioP2
31306;SDS011;17935;51.120;13.132;2023-09-19T00:00:17;6.60;;;2.33;;
31306;SDS011;17935;51.120;13.132;2023-09-19T00:02:51;3.80;;;1.92;;
31306;SDS011;17935;51.120;13.132;2023-09-19T00:05:17;4.40;;;2.30;;
31306;SDS011;17935;51.120;13.132;2023-09-19T00:07:49;3.50;;;2.17;;
31306;SDS011;17935;51.120;13.132;2023-09-19T00:10:15;5.68;;;2.70;;
31306;SDS011;17935;51.120;13.132;2023-09-19T00:12:44;7.55;;;2.15;;
31306;SDS011;17935;51.120;13.132;2023-09-19T00:15:12;3.03;;;2.00;;
31306;SDS011;17935;51.120;13.132;2023-09-19T00:17:43;4.07;;;2.03;;
31306;SDS011;17935;51.120;13.132;2023-09-19T00:20:09;4.40;;;2.13;;
31306;SDS011;17935;51.120;13.132;2023-09-19T00:22:41;3.88;;;2.05;;
31306;SDS011;17935;51.120;13.132;2023-09-19T00:25:10;4.07;;;2.10;;
31306;SDS011;17935;51.120;13.132;2023-09-19T00:27:37;3.65;;;2.60;;
31306;SDS011;17935;51.120;13.132;2023-09-19T00:30:07;6.22;;;2.65;;
31306;SDS011;17935;51.120;13.132;2023-09-19T00:32:40;6.95;;;2.70;;
31306;SDS011;17935;51.120;13.132;2023-09-19T00:35:07;3.85;;;2.00;;
31306;SDS011;17935;51.120;13.132;2023-09-19T00:37:36;5.47;;;2.25;;
31306;SDS011;17935;51.120;13.132;2023-09-19T00:40:05;3.58;;;2.20;;
31306;SDS011;17935;51.120;13.132;2023-09-19T00:42:34;3.40;;;2.25;;
31306;SDS011;17935;51.120;13.132;2023-09-19T00:45:02;4.70;;;2.20;;
31306;SDS011;17935;51.120;13.132;2023-09-19T00:47:28;5.68;;;2.20;;
31306;SDS011;17935;51.120;13.132;2023-09-19T00:49:55;6.53;;;3.20;;
31306;SDS011;17935;51.120;13.132;2023-09-19T00:52:21;5.65;;;2.05;;
31306;SDS011;17935;51.120;13.132;2023-09-19T00:54:51;5.32;;;2.03;;
31306;SDS011;17935;51.120;13.132;2023-09-19T00:57:17;5.45;;;2.10;;
31306;SDS011;17935;51.120;13.132;2023-09-19T00:59:44;3.75;;;2.13;;
31306;SDS011;17935;51.120;13.132;2023-09-19T01:02:10;4.83;;;2.10;;
31306;SDS011;17935;51.120;13.132;2023-09-19T01:04:39;4.82;;;2.10;;
31306;SDS011;17935;51.120;13.132;2023-09-19T01:07:08;5.18;;;2.15;;
31306;SDS011;17935;51.120;13.132;2023-09-19T01:09:34;4.72;;;2.03;;
31306;SDS011;17935;51.120;13.132;2023-09-19T01:12:03;3.55;;;1.90;;
31306;SDS011;17935;51.120;13.132;2023-09-19T01:14:34;8.10;;;2.20;;
31306;SDS011;17935;51.120;13.132;2023-09-19T01:17:06;4.60;;;2.20;;
31306;SDS011;17935;51.120;13.132;2023-09-19T01:19:49;4.65;;;1.75;;
31306;SDS011;17935;51.120;13.132;2023-09-19T01:30:44;7.53;;;2.40;;
31306;SDS011;17935;51.120;13.132;2023-09-19T01:33:12;4.85;;;2.00;;
31306;SDS011;17935;51.120;13.132;2023-09-19T01:35:41;3.63;;;1.70;;
31306;SDS011;17935;51.120;13.132;2023-09-19T01:38:14;2.80;;;1.60;;
31306;SDS011;17935;51.120;13.132;2023-09-19T01:40:46;3.72;;;1.70;;
31306;SDS011;17935;51.120;13.132;2023-09-19T01:43:22;2.25;;;1.80;;
31306;SDS011;17935;51.120;13.132;2023-09-19T01:51:46;4.43;;;1.73;;
31306;SDS011;17935;51.120;13.132;2023-09-19T01:54:18;5.35;;;1.80;;
31306;SDS011;17935;51.120;13.132;2023-09-19T01:59:23;4.95;;;1.50;;
31306;SDS011;17935;51.120;13.132;2023-09-19T02:01:52;2.80;;;1.63;;
31306;SDS011;17935;51.120;13.132;2023-09-19T02:04:19;3.30;;;1.70;;
31306;SDS011;17935;51.120;13.132;2023-09-19T02:06:45;3.67;;;1.43;;
31306;SDS011;17935;51.120;13.132;2023-09-19T02:09:12;5.57;;;1.85;;
31306;SDS011;17935;51.120;13.132;2023-09-19T02:11:44;2.03;;;1.50;;
31306;SDS011;17935;51.120;13.132;2023-09-19T02:14:17;3.00;;;1.70;;
31306;SDS011;17935;51.120;13.132;2023-09-19T02:16:52;3.53;;;1.60;;
31306;SDS011;17935;51.120;13.132;2023-09-19T02:19:19;4.07;;;1.95;;
31306;SDS011;17935;51.120;13.132;2023-09-19T02:21:50;2.83;;;1.60;;
31306;SDS011;17935;51.120;13.132;2023-09-19T02:24:18;3.92;;;1.63;;
31306;SDS011;17935;51.120;13.132;2023-09-19T02:26:47;3.00;;;1.65;;
31306;SDS011;17935;51.120;13.132;2023-09-19T02:29:13;4.18;;;1.77;;
31306;SDS011;17935;51.120;13.132;2023-09-19T02:31:41;3.22;;;1.45;;
31306;SDS011;17935;51.120;13.132;2023-09-19T02:34:07;9.23;;;1.60;;
31306;SDS011;17935;51.120;13.132;2023-09-19T02:36:36;3.47;;;1.52;;
31306;SDS011;17935;51.120;13.132;2023-09-19T02:39:05;4.18;;;1.58;;
31306;SDS011;17935;51.120;13.132;2023-09-19T02:41:33;3.13;;;1.42;;
31306;SDS011;17935;51.120;13.132;2023-09-19T02:43:59;2.78;;;1.33;;
31306;SDS011;17935;51.120;13.132;2023-09-19T02:46:27;3.17;;;1.60;;
31306;SDS011;17935;51.120;13.132;2023-09-19T06:53:49;2.67;;;1.13;;
31306;SDS011;17935;51.120;13.132;2023-09-19T07:28:33;2.90;;;1.30;;
31306;SDS011;17935;51.120;13.132;2023-09-19T07:31:07;4.22;;;1.23;;
31306;SDS011;17935;51.120;13.132;2023-09-19T07:33:40;2.97;;;1.33;;
31306;SDS011;17935;51.120;13.132;2023-09-19T07:36:21;2.35;;;1.17;;
31306;SDS011;17935;51.120;13.132;2023-09-19T07:58:43;3.10;;;1.02;;
31306;SDS011;17935;51.120;13.132;2023-09-19T08:01:34;3.22;;;1.17;;
31306;SDS011;17935;51.120;13.132;2023-09-19T08:04:35;0.93;;;0.77;;
31306;SDS011;17935;51.120;13.132;2023-09-19T08:10:35;1.30;;;1.10;;
31306;SDS011;17935;51.120;13.132;2023-09-19T08:13:27;1.73;;;0.97;;
31306;SDS011;17935;51.120;13.132;2023-09-19T08:16:09;6.45;;;1.27;;
31306;SDS011;17935;51.120;13.132;2023-09-19T08:19:08;1.00;;;0.90;;
31306;SDS011;17935;51.120;13.132;2023-09-19T08:22:02;6.00;;;1.10;;
31306;SDS011;17935;51.120;13.132;2023-09-19T08:30:35;1.83;;;1.00;;
31306;SDS011;17935;51.120;13.132;2023-09-19T08:33:36;1.58;;;1.13;;
31306;SDS011;17935;51.120;13.132;2023-09-19T08:36:37;2.83;;;1.23;;
31306;SDS011;17935;51.120;13.132;2023-09-19T08:39:15;1.40;;;0.80;;
31306;SDS011;17935;51.120;13.132;2023-09-19T08:42:05;1.40;;;1.15;;
31306;SDS011;17935;51.120;13.132;2023-09-19T08:45:04;4.32;;;1.20;;
31306;SDS011;17935;51.120;13.132;2023-09-19T08:51:38;3.15;;;1.20;;
31306;SDS011;17935;51.120;13.132;2023-09-19T09:01:23;2.30;;;1.17;;
31306;SDS011;17935;51.120;13.132;2023-09-19T09:29:05;2.50;;;0.90;;
31306;SDS011;17935;51.120;13.132;2023-09-19T09:31:44;2.77;;;1.10;;
31306;SDS011;17935;51.120;13.132;2023-09-19T09:37:29;1.30;;;0.98;;
31306;SDS011;17935;51.120;13.132;2023-09-19T09:40:12;2.33;;;1.00;;
31306;SDS011;17935;51.120;13.132;2023-09-19T09:49:49;2.30;;;1.10;;
31306;SDS011;17935;51.120;13.132;2023-09-19T09:52:34;2.05;;;1.20;;
31306;SDS011;17935;51.120;13.132;2023-09-19T09:55:15;6.18;;;1.10;;
31306;SDS011;17935;51.120;13.132;2023-09-19T10:03:57;4.97;;;2.20;;
31306;SDS011;17935;51.120;13.132;2023-09-19T10:06:40;1.80;;;1.02;;
31306;SDS011;17935;51.120;13.132;2023-09-19T10:12:27;1.88;;;1.20;;
31306;SDS011;17935;51.120;13.132;2023-09-19T10:14:57;1.58;;;0.98;;
31306;SDS011;17935;51.120;13.132;2023-09-19T10:17:33;4.20;;;1.38;;
31306;SDS011;17935;51.120;13.132;2023-09-19T10:25:30;3.53;;;1.40;;
31306;SDS011;17935;51.120;13.132;2023-09-19T10:28:31;2.70;;;1.02;;
31306;SDS011;17935;51.120;13.132;2023-09-19T10:31:29;2.45;;;1.02;;
31306;SDS011;17935;51.120;13.132;2023-09-19T10:34:25;2.55;;;1.45;;
31306;SDS011;17935;51.120;13.132;2023-09-19T10:40:36;2.07;;;1.50;;
31306;SDS011;17935;51.120;13.132;2023-09-19T10:43:38;6.50;;;1.42;;
31306;SDS011;17935;51.120;13.132;2023-09-19T10:46:19;2.47;;;1.33;;
31306;SDS011;17935;51.120;13.132;2023-09-19T10:48:50;2.35;;;1.33;;
31306;SDS011;17935;51.120;13.132;2023-09-19T10:51:21;6.47;;;1.40;;
31306;SDS011;17935;51.120;13.132;2023-09-19T10:54:06;1.90;;;1.00;;
31306;SDS011;17935;51.120;13.132;2023-09-19T10:56:48;2.88;;;1.25;;
31306;SDS011;17935;51.120;13.132;2023-09-19T10:59:24;1.52;;;1.17;;
31306;SDS011;17935;51.120;13.132;2023-09-19T11:01:59;2.08;;;1.10;;
31306;SDS011;17935;51.120;13.132;2023-09-19T11:04:46;1.90;;;1.33;;
31306;SDS011;17935;51.120;13.132;2023-09-19T11:07:23;9.27;;;1.30;;
31306;SDS011;17935;51.120;13.132;2023-09-19T11:10:00;2.35;;;1.40;;
31306;SDS011;17935;51.120;13.132;2023-09-19T11:17:42;6.18;;;1.83;;
31306;SDS011;17935;51.120;13.132;2023-09-19T11:23:39;2.60;;;1.25;;
31306;SDS011;17935;51.120;13.132;2023-09-19T11:32:02;3.00;;;1.40;;
31306;SDS011;17935;51.120;13.132;2023-09-19T11:49:48;3.67;;;1.52;;
31306;SDS011;17935;51.120;13.132;2023-09-19T11:52:52;5.35;;;1.45;;
31306;SDS011;17935;51.120;13.132;2023-09-19T11:55:25;4.85;;;1.58;;
31306;SDS011;17935;51.120;13.132;2023-09-19T11:57:57;3.42;;;1.73;;
31306;SDS011;17935;51.120;13.132;2023-09-19T12:00:27;3.42;;;1.30;;
31306;SDS011;17935;51.120;13.132;2023-09-19T12:03:27;3.85;;;1.77;;
31306;SDS011;17935;51.120;13.132;2023-09-19T12:06:10;5.75;;;1.48;;
31306;SDS011;17935;51.120;13.132;2023-09-19T12:08:40;5.13;;;1.73;;
31306;SDS011;17935;51.120;13.132;2023-09-19T12:11:15;4.13;;;1.27;;
31306;SDS011;17935;51.120;13.132;2023-09-19T12:13:53;13.43;;;1.90;;
31306;SDS011;17935;51.120;13.132;2023-09-19T12:16:40;3.05;;;1.77;;
31306;SDS011;17935;51.120;13.132;2023-09-19T12:19:20;6.40;;;1.65;;
31306;SDS011;17935;51.120;13.132;2023-09-19T12:22:02;6.88;;;1.85;;
31306;SDS011;17935;51.120;13.132;2023-09-19T12:24:34;3.08;;;1.63;;
31306;SDS011;17935;51.120;13.132;2023-09-19T12:27:13;3.85;;;1.35;;
31306;SDS011;17935;51.120;13.132;2023-09-19T12:29:52;3.30;;;1.70;;
31306;SDS011;17935;51.120;13.132;2023-09-19T12:32:43;2.58;;;1.40;;
31306;SDS011;17935;51.120;13.132;2023-09-19T12:35:29;2.33;;;1.35;;
31306;SDS011;17935;51.120;13.132;2023-09-19T12:38:26;3.45;;;1.60;;
31306;SDS011;17935;51.120;13.132;2023-09-19T12:41:01;5.40;;;1.60;;
31306;SDS011;17935;51.120;13.132;2023-09-19T12:43:38;3.50;;;2.00;;
31306;SDS011;17935;51.120;13.132;2023-09-19T12:46:14;5.20;;;2.17;;
31306;SDS011;17935;51.120;13.132;2023-09-19T12:51:38;2.83;;;2.13;;
31306;SDS011;17935;51.120;13.132;2023-09-19T12:54:14;7.05;;;1.80;;
31306;SDS011;17935;51.120;13.132;2023-09-19T12:57:04;4.60;;;1.73;;
31306;SDS011;17935;51.120;13.132;2023-09-19T13:05:48;4.30;;;1.60;;
31306;SDS011;17935;51.120;13.132;2023-09-19T13:14:25;2.58;;;1.40;;
31306;SDS011;17935;51.120;13.132;2023-09-19T13:17:12;6.53;;;1.88;;
31306;SDS011;17935;51.120;13.132;2023-09-19T13:19:48;3.70;;;1.40;;
31306;SDS011;17935;51.120;13.132;2023-09-19T13:22:36;5.47;;;1.88;;
31306;SDS011;17935;51.120;13.132;2023-09-19T13:25:13;5.47;;;1.77;;
31306;SDS011;17935;51.120;13.132;2023-09-19T13:28:07;3.63;;;1.70;;
31306;SDS011;17935;51.120;13.132;2023-09-19T13:30:45;4.82;;;1.85;;
31306;SDS011;17935;51.120;13.132;2023-09-19T13:33:13;4.97;;;1.80;;
31306;SDS011;17935;51.120;13.132;2023-09-19T13:35:45;6.00;;;1.60;;
31306;SDS011;17935;51.120;13.132;2023-09-19T13:41:09;3.20;;;2.00;;
31306;SDS011;17935;51.120;13.132;2023-09-19T13:43:47;2.30;;;1.60;;
31306;SDS011;17935;51.120;13.132;2023-09-19T13:49:09;3.33;;;2.20;;
31306;SDS011;17935;51.120;13.132;2023-09-19T13:51:52;2.47;;;1.63;;
31306;SDS011;17935;51.120;13.132;2023-09-19T13:54:36;4.00;;;1.75;;
31306;SDS011;17935;51.120;13.132;2023-09-19T14:16:06;3.63;;;1.80;;
31306;SDS011;17935;51.120;13.132;2023-09-19T14:25:10;2.97;;;1.58;;
31306;SDS011;17935;51.120;13.132;2023-09-19T14:27:56;2.53;;;1.65;;
31306;SDS011;17935;51.120;13.132;2023-09-19T14:30:32;6.35;;;1.90;;
31306;SDS011;17935;51.120;13.132;2023-09-19T14:33:30;3.33;;;2.00;;
31306;SDS011;17935;51.120;13.132;2023-09-19T14:36:32;4.72;;;2.35;;
31306;SDS011;17935;51.120;13.132;2023-09-19T14:42:39;3.45;;;1.95;;
31306;SDS011;17935;51.120;13.132;2023-09-19T14:45:22;2.55;;;1.75;;
31306;SDS011;17935;51.120;13.132;2023-09-19T15:13:40;10.65;;;2.80;;
31306;SDS011;17935;51.120;13.132;2023-09-19T17:07:01;8.82;;;3.00;;
31306;SDS011;17935;51.120;13.132;2023-09-19T17:10:08;4.70;;;2.67;;
31306;SDS011;17935;51.120;13.132;2023-09-19T17:12:54;6.45;;;3.03;;
31306;SDS011;17935;51.120;13.132;2023-09-19T17:19:12;7.47;;;2.85;;
31306;SDS011;17935;51.120;13.132;2023-09-19T17:24:54;6.45;;;2.80;;
31306;SDS011;17935;51.120;13.132;2023-09-19T17:58:48;5.75;;;2.80;;
31306;SDS011;17935;51.120;13.132;2023-09-19T18:07:21;7.07;;;3.28;;
31306;SDS011;17935;51.120;13.132;2023-09-19T18:33:19;5.57;;;2.95;;
31306;SDS011;17935;51.120;13.132;2023-09-19T18:44:27;7.30;;;3.30;;
31306;SDS011;17935;51.120;13.132;2023-09-19T18:47:02;11.55;;;2.67;;
31306;SDS011;17935;51.120;13.132;2023-09-19T18:49:36;5.75;;;2.70;;
31306;SDS011;17935;51.120;13.132;2023-09-19T18:54:47;3.85;;;2.38;;
31306;SDS011;17935;51.120;13.132;2023-09-19T19:00:08;4.72;;;2.25;;
31306;SDS011;17935;51.120;13.132;2023-09-19T19:02:40;4.70;;;2.83;;
31306;SDS011;17935;51.120;13.132;2023-09-19T19:05:14;6.80;;;3.00;;
31306;SDS011;17935;51.120;13.132;2023-09-19T19:07:43;5.60;;;2.75;;
31306;SDS011;17935;51.120;13.132;2023-09-19T19:10:13;6.35;;;3.25;;
31306;SDS011;17935;51.120;13.132;2023-09-19T19:12:51;5.38;;;3.03;;
31306;SDS011;17935;51.120;13.132;2023-09-19T19:20:41;5.38;;;2.78;;
31306;SDS011;17935;51.120;13.132;2023-09-19T19:23:13;7.72;;;2.67;;
31306;SDS011;17935;51.120;13.132;2023-09-19T19:25:51;6.97;;;3.17;;
31306;SDS011;17935;51.120;13.132;2023-09-19T19:31:20;9.15;;;2.95;;
31306;SDS011;17935;51.120;13.132;2023-09-19T19:33:54;5.25;;;2.75;;
31306;SDS011;17935;51.120;13.132;2023-09-19T19:36:26;5.55;;;2.85;;
31306;SDS011;17935;51.120;13.132;2023-09-19T19:39:05;4.82;;;2.72;;
31306;SDS011;17935;51.120;13.132;2023-09-19T19:42:06;6.32;;;3.17;;
31306;SDS011;17935;51.120;13.132;2023-09-19T19:44:55;6.70;;;2.53;;
31306;SDS011;17935;51.120;13.132;2023-09-19T19:50:21;6.93;;;2.90;;
31306;SDS011;17935;51.120;13.132;2023-09-19T20:00:41;11.68;;;2.83;;
31306;SDS011;17935;51.120;13.132;2023-09-19T20:03:21;7.18;;;3.00;;
31306;SDS011;17935;51.120;13.132;2023-09-19T20:05:59;9.02;;;3.65;;
31306;SDS011;17935;51.120;13.132;2023-09-19T20:08:43;8.30;;;3.03;;
31306;SDS011;17935;51.120;13.132;2023-09-19T20:11:18;7.30;;;3.15;;
31306;SDS011;17935;51.120;13.132;2023-09-19T20:14:00;10.13;;;3.45;;
31306;SDS011;17935;51.120;13.132;2023-09-19T20:19:08;7.43;;;3.17;;
31306;SDS011;17935;51.120;13.132;2023-09-19T20:27:44;9.38;;;3.20;;
31306;SDS011;17935;51.120;13.132;2023-09-19T20:30:38;11.23;;;3.28;;
31306;SDS011;17935;51.120;13.132;2023-09-19T20:33:25;6.13;;;2.80;;
31306;SDS011;17935;51.120;13.132;2023-09-19T20:36:06;7.68;;;3.20;;
31306;SDS011;17935;51.120;13.132;2023-09-19T20:38:42;6.68;;;3.08;;
31306;SDS011;17935;51.120;13.132;2023-09-19T20:41:43;10.20;;;3.10;;
31306;SDS011;17935;51.120;13.132;2023-09-19T20:47:40;6.32;;;2.88;;
31306;SDS011;17935;51.120;13.132;2023-09-19T20:50:34;6.15;;;2.58;;
31306;SDS011;17935;51.120;13.132;2023-09-19T21:54:14;6.50;;;2.25;;
31306;SDS011;17935;51.120;13.132;2023-09-19T22:06:40;8.43;;;2.72;;
31306;SDS011;17935;51.120;13.132;2023-09-19T22:12:13;4.80;;;2.17;;
31306;SDS011;17935;51.120;13.132;2023-09-19T22:14:53;3.83;;;1.90;;
31306;SDS011;17935;51.120;13.132;2023-09-19T22:29:53;6.03;;;2.97;;
31306;SDS011;17935;51.120;13.132;2023-09-19T22:35:14;6.03;;;2.10;;
31306;SDS011;17935;51.120;13.132;2023-09-19T22:37:53;4.72;;;2.15;;
31306;SDS011;17935;51.120;13.132;2023-09-19T22:40:44;6.95;;;1.98;;
31306;SDS011;17935;51.120;13.132;2023-09-19T22:49:23;3.67;;;1.95;;
31306;SDS011;17935;51.120;13.132;2023-09-19T23:00:51;8.23;;;2.10;;
31306;SDS011;17935;51.120;13.132;2023-09-19T23:06:55;5.55;;;1.98;;
31306;SDS011;17935;51.120;13.132;2023-09-19T23:43:28;4.22;;;2.10;;
31306;SDS011;17935;51.120;13.132;2023-09-19T23:59:38;6.32;;;2.17;;
